createdAt,value
2023-11-09T00:01:14.101Z,100308.44
2023-11-09T00:04:17.391Z,100305.97
2023-11-09T00:07:20.663Z,100311.22
2023-11-09T00:10:22.821Z,100304.47
2023-11-09T00:13:25.239Z,100301.84
2023-11-09T00:16:27.105Z,100311.22
2023-11-09T00:19:30.328Z,100312.84
2023-11-09T00:22:34.450Z,100308.38
2023-11-09T00:25:36.739Z,100302.31
2023-11-09T00:28:38.548Z,100311.75
2023-11-09T00:31:41.103Z,100301.47
2023-11-09T00:34:45.440Z,100290.72
2023-11-09T00:37:48.054Z,100294.06
2023-11-09T00:40:50.053Z,100278.75
2023-11-09T00:43:57.130Z,100275.75
2023-11-09T00:47:00.988Z,100280.06
2023-11-09T00:50:04.710Z,100280.47
2023-11-09T00:53:06.934Z,100278.00
2023-11-09T00:56:09.213Z,100279.75
2023-11-09T00:59:10.986Z,100279.00
2023-11-09T01:02:13.089Z,100275.75
2023-11-09T01:05:16.858Z,100273.31
2023-11-09T01:08:18.715Z,100276.56
2023-11-09T01:11:24.042Z,100274.16
2023-11-09T01:14:25.912Z,100266.72
2023-11-09T01:17:28.954Z,100278.53
2023-11-09T01:20:33.698Z,100279.22
2023-11-09T01:23:35.613Z,100276.75
2023-11-09T01:26:37.443Z,100279.38
2023-11-09T01:29:40.328Z,100279.34
2023-11-09T01:32:42.597Z,100280.78
2023-11-09T01:35:46.191Z,100267.72
2023-11-09T01:38:48.050Z,100271.16
2023-11-09T01:41:51.195Z,100264.94
2023-11-09T01:44:52.973Z,100282.66
2023-11-09T01:47:55.392Z,100274.31
2023-11-09T01:50:58.593Z,100272.38
2023-11-09T01:54:00.657Z,100274.22
2023-11-09T01:57:04.403Z,100273.91
2023-11-09T02:00:07.963Z,100272.75
2023-11-09T02:03:13.024Z,100279.97
2023-11-09T02:06:19.557Z,100269.63
2023-11-09T02:09:22.202Z,100270.47
2023-11-09T02:12:24.109Z,100278.09
2023-11-09T02:15:26.864Z,100280.47
2023-11-09T02:18:29.202Z,100276.09
2023-11-09T02:21:34.570Z,100277.25
2023-11-09T02:24:37.982Z,100286.38
2023-11-09T02:27:40.717Z,100273.94
2023-11-09T02:30:43.151Z,100267.13
2023-11-09T02:33:45.732Z,100270.28
2023-11-09T02:36:48.452Z,100267.66
2023-11-09T02:39:54.414Z,100275.50
2023-11-09T02:42:56.266Z,100266.06
2023-11-09T02:45:59.125Z,100269.81
2023-11-09T02:49:01.968Z,100273.59
2023-11-09T02:52:04.211Z,100278.19
2023-11-09T02:55:08.561Z,100263.31
2023-11-09T02:58:10.464Z,100266.47
2023-11-09T03:01:12.326Z,100283.19
2023-11-09T03:04:15.458Z,100283.91
2023-11-09T03:07:17.369Z,100274.63
2023-11-09T03:10:21.661Z,100286.53
2023-11-09T03:13:23.611Z,100282.25
2023-11-09T03:16:25.720Z,100274.16
2023-11-09T03:19:27.637Z,100272.84
2023-11-09T03:22:31.343Z,100272.75
2023-11-09T03:25:34.594Z,100269.19
2023-11-09T03:28:39.221Z,100268.03
2023-11-09T03:31:41.822Z,100272.63
2023-11-09T03:34:43.688Z,100264.81
2023-11-09T03:37:45.513Z,100270.91
2023-11-09T03:40:48.965Z,100274.00
2023-11-09T03:43:50.783Z,100268.78
2023-11-09T03:46:53.534Z,100273.09
2023-11-09T03:49:55.340Z,100271.72
2023-11-09T03:52:57.480Z,100269.19
2023-11-09T03:56:00.681Z,100245.59
2023-11-09T03:59:03.559Z,100250.66
2023-11-09T04:02:05.410Z,100247.97
2023-11-09T04:05:11.306Z,100260.38
2023-11-09T04:08:13.189Z,100254.91
2023-11-09T04:11:16.800Z,100251.47
2023-11-09T04:14:18.655Z,100257.66
2023-11-09T04:17:21.471Z,100255.75
2023-11-09T04:20:23.972Z,100251.88
2023-11-09T04:23:27.016Z,100251.47
2023-11-09T04:26:33.817Z,100247.22
2023-11-09T04:29:36.425Z,100247.88
2023-11-09T04:32:39.446Z,100245.03
2023-11-09T04:35:45.447Z,100246.72
2023-11-09T04:38:48.001Z,100248.19
2023-11-09T04:41:51.219Z,100249.22
2023-11-09T04:44:58.023Z,100257.53
2023-11-09T04:48:08.549Z,100254.91
2023-11-09T04:51:10.420Z,100244.19
2023-11-09T04:54:20.988Z,100246.72
2023-11-09T04:57:46.971Z,100252.81
2023-11-09T05:01:07.759Z,100249.97
2023-11-09T05:04:28.262Z,100254.69
2023-11-09T05:07:30.338Z,100241.06
2023-11-09T05:10:32.379Z,100253.53
2023-11-09T05:13:35.670Z,100250.19
2023-11-09T05:16:39.220Z,100261.31
2023-11-09T05:19:41.206Z,100257.22
2023-11-09T05:22:43.333Z,100254.69
2023-11-09T05:25:46.290Z,100249.34
2023-11-09T05:28:50.083Z,100246.19
2023-11-09T05:31:52.591Z,100244.84
2023-11-09T05:34:55.221Z,100242.41
2023-11-09T05:37:57.341Z,100238.75
2023-11-09T05:41:00.094Z,100238.34
2023-11-09T05:44:03.935Z,100229.19
2023-11-09T05:47:05.869Z,100226.88
2023-11-09T05:50:09.350Z,100233.38
2023-11-09T05:53:11.356Z,100240.84
2023-11-09T05:56:15.182Z,100245.34
2023-11-09T05:59:18.800Z,100239.47
2023-11-09T06:02:20.673Z,100239.91
2023-11-09T06:05:26.132Z,100246.28
2023-11-09T06:08:28.039Z,100244.09
2023-11-09T06:11:33.167Z,100247.56
2023-11-09T06:14:39.742Z,100251.00
2023-11-09T06:17:41.622Z,100252.03
2023-11-09T06:20:45.442Z,100268.59
2023-11-09T06:23:47.267Z,100267.41
2023-11-09T06:26:51.001Z,100263.50
2023-11-09T06:29:54.517Z,100268.31
2023-11-09T06:32:56.501Z,100273.19
2023-11-09T06:36:00.262Z,100273.47
2023-11-09T06:39:02.421Z,100276.28
2023-11-09T06:42:05.169Z,100286.16
2023-11-09T06:45:10.480Z,100286.44
2023-11-09T06:48:13.455Z,100279.88
2023-11-09T06:51:15.341Z,100274.34
2023-11-09T06:54:18.037Z,100275.81
2023-11-09T06:57:20.086Z,100279.41
2023-11-09T07:00:24.969Z,100277.19
2023-11-09T07:03:26.808Z,100223.22
2023-11-09T07:06:29.588Z,100226.56
2023-11-09T07:09:31.456Z,100238.88
2023-11-09T07:12:34.244Z,100220.59
2023-11-09T07:15:40.568Z,100229.03
2023-11-09T07:18:43.168Z,100222.34
2023-11-09T07:21:45.066Z,100220.50
2023-11-09T07:24:52.512Z,100225.16
2023-11-09T07:27:57.138Z,100211.03
2023-11-09T07:31:02.608Z,100213.94
2023-11-09T07:34:04.834Z,100273.69
2023-11-09T07:37:07.527Z,100270.56
2023-11-09T07:40:11.674Z,100264.75
2023-11-09T07:43:13.801Z,100259.31
2023-11-09T07:46:17.027Z,100255.31
2023-11-09T07:49:19.073Z,100251.94
2023-11-09T07:52:21.956Z,100249.41
2023-11-09T07:55:23.894Z,100246.63
2023-11-09T07:58:25.708Z,100244.56
2023-11-09T08:01:28.962Z,100245.88
2023-11-09T08:04:30.796Z,100233.13
2023-11-09T08:07:32.617Z,100224.38
2023-11-09T08:10:36.441Z,100225.75
2023-11-09T08:13:38.279Z,100219.72
2023-11-09T08:16:43.079Z,100215.41
2023-11-09T08:19:45.017Z,100209.44
2023-11-09T08:22:48.097Z,100207.53
2023-11-09T08:25:50.137Z,100202.78
2023-11-09T08:28:54.146Z,100203.94
2023-11-09T08:32:03.437Z,100211.88
2023-11-09T08:35:11.535Z,100206.53
2023-11-09T08:38:13.351Z,100193.03
2023-11-09T08:41:17.159Z,100197.56
2023-11-09T08:44:19.777Z,100189.06
2023-11-09T08:47:23.062Z,100186.53
2023-11-09T08:50:26.326Z,100193.22
2023-11-09T08:53:32.536Z,100188.22
2023-11-09T08:56:36.529Z,100186.69
2023-11-09T08:59:38.747Z,100188.00
2023-11-09T09:02:52.715Z,100183.06
2023-11-09T09:05:56.834Z,100186.41
2023-11-09T09:08:58.988Z,100173.91
2023-11-09T09:12:01.395Z,100172.66
2023-11-09T09:15:05.295Z,100162.75
2023-11-09T09:18:11.209Z,100177.16
2023-11-09T09:21:13.721Z,100156.66
2023-11-09T09:24:15.635Z,100173.84
2023-11-09T09:27:17.577Z,100168.44
2023-11-09T09:30:22.695Z,100151.00
2023-11-09T09:33:27.282Z,100153.47
2023-11-09T09:36:29.232Z,100157.94
2023-11-09T09:39:33.019Z,100152.66
2023-11-09T09:42:35.096Z,100159.44
2023-11-09T09:45:38.657Z,100161.19
2023-11-09T09:48:42.346Z,100154.94
2023-11-09T09:51:45.368Z,100150.03
2023-11-09T09:54:47.557Z,100154.22
2023-11-09T09:57:49.549Z,100151.50
2023-11-09T10:00:55.522Z,100140.41
2023-11-09T10:03:59.773Z,100132.44
2023-11-09T10:07:02.091Z,100143.72
2023-11-09T10:10:04.404Z,100134.00
2023-11-09T10:13:11.512Z,100125.38
2023-11-09T10:16:15.797Z,100144.78
2023-11-09T10:19:19.190Z,100132.50
2023-11-09T10:22:21.667Z,100138.09
2023-11-09T10:25:28.738Z,100115.84
2023-11-09T10:28:34.051Z,100127.13
2023-11-09T10:31:36.388Z,100122.88
2023-11-09T10:34:40.039Z,100111.16
2023-11-09T10:37:44.523Z,100098.13
2023-11-09T10:41:13.976Z,100093.59
2023-11-09T10:44:11.613Z,100095.91
2023-11-09T10:47:14.950Z,100093.16
2023-11-09T10:50:21.986Z,100089.84
2023-11-09T10:53:28.152Z,100084.69
2023-11-09T10:56:31.308Z,100085.97
2023-11-09T10:59:42.018Z,100072.41
2023-11-09T11:02:52.710Z,100060.44
2023-11-09T11:06:00.558Z,100069.84
2023-11-09T11:09:09.867Z,100064.81
2023-11-09T11:12:16.992Z,100053.94
2023-11-09T11:15:28.603Z,100040.44
2023-11-09T11:18:43.581Z,100048.75
2023-11-09T11:21:58.963Z,100050.06
2023-11-09T11:25:17.460Z,100056.63
2023-11-09T11:28:20.224Z,100050.34
2023-11-09T11:31:23.271Z,100049.25
2023-11-09T11:34:50.619Z,100058.16
2023-11-09T11:37:53.984Z,100045.84
2023-11-09T11:41:01.521Z,100048.13
2023-11-09T11:44:03.426Z,100048.41
2023-11-09T11:47:06.865Z,100034.72
2023-11-09T11:50:11.827Z,100035.16
2023-11-09T11:53:29.693Z,100035.06
2023-11-09T11:56:34.783Z,100028.03
2023-11-09T11:59:40.233Z,100020.34
2023-11-09T12:02:52.879Z,100004.78
2023-11-09T12:06:10.910Z,100015.88
2023-11-09T12:09:22.491Z,99997.97
2023-11-09T12:12:27.875Z,99997.34
2023-11-09T12:15:30.340Z,100004.63
2023-11-09T12:18:32.234Z,100008.94
2023-11-09T12:21:35.663Z,99987.09
2023-11-09T12:24:41.635Z,99996.34
2023-11-09T12:27:45.770Z,99980.22
2023-11-09T12:30:53.001Z,99990.03
2023-11-09T12:34:04.847Z,99981.44
2023-11-09T12:37:12.967Z,99983.94
2023-11-09T12:40:18.426Z,99982.44
2023-11-09T12:43:21.323Z,99987.25
2023-11-09T12:46:24.649Z,99975.63
2023-11-09T12:49:28.865Z,99981.59
2023-11-09T12:52:31.417Z,99963.16
2023-11-09T12:55:35.433Z,99967.63
2023-11-09T12:58:42.011Z,99949.69
2023-11-09T13:01:44.799Z,99955.31
2023-11-09T13:04:50.536Z,99946.34
2023-11-09T13:07:57.533Z,99946.84
2023-11-09T13:11:02.684Z,99944.69
2023-11-09T13:14:09.693Z,99953.03
2023-11-09T13:17:18.233Z,99948.31
2023-11-09T13:20:29.469Z,99945.00
2023-11-09T13:23:35.969Z,99933.00
2023-11-09T13:26:39.307Z,99946.47
2023-11-09T13:29:44.651Z,99928.84
2023-11-09T13:32:50.627Z,99940.47
2023-11-09T13:35:54.047Z,99935.84
2023-11-09T13:38:59.113Z,99931.69
2023-11-09T13:42:10.173Z,99933.19
2023-11-09T13:45:30.231Z,99922.53
2023-11-09T13:48:33.045Z,99917.56
2023-11-09T13:51:34.910Z,99923.00
2023-11-09T13:54:39.802Z,99919.19
2023-11-09T13:57:46.363Z,99924.00
2023-11-09T14:00:49.055Z,99911.53
2023-11-09T14:03:50.874Z,99914.03
2023-11-09T14:06:53.119Z,99908.38
2023-11-09T14:09:56.070Z,99907.34
2023-11-09T14:13:19.535Z,99925.75
2023-11-09T14:16:24.629Z,99916.81
2023-11-09T14:19:36.433Z,99911.94
2023-11-09T14:22:40.694Z,99907.69
2023-11-09T14:25:43.401Z,99901.13
2023-11-09T14:28:46.648Z,99903.16
2023-11-09T14:31:48.538Z,99899.22
2023-11-09T14:34:50.506Z,99887.69
2023-11-09T14:37:52.868Z,99879.88
2023-11-09T14:40:58.053Z,99884.13
2023-11-09T14:44:01.287Z,99884.06
2023-11-09T14:47:07.772Z,99884.94
2023-11-09T14:50:20.149Z,99884.94
2023-11-09T14:53:33.749Z,99885.72
2023-11-09T14:56:42.792Z,99888.53
2023-11-09T14:59:46.017Z,99888.16
2023-11-09T15:02:49.342Z,99882.00
2023-11-09T15:05:54.542Z,99887.34
2023-11-09T15:09:03.401Z,99869.31
2023-11-09T15:12:06.965Z,99866.78
2023-11-09T15:15:14.635Z,99869.25
2023-11-09T15:18:17.043Z,99871.06
2023-11-09T15:21:22.447Z,99871.50
2023-11-09T15:24:24.980Z,99883.66
2023-11-09T15:27:29.905Z,99872.97
2023-11-09T15:30:33.278Z,99872.78
2023-11-09T15:33:36.306Z,99874.00
2023-11-09T15:36:38.350Z,99877.25
2023-11-09T15:40:12.158Z,99873.88
2023-11-09T15:43:05.059Z,99864.00
2023-11-09T15:46:13.484Z,99866.03
2023-11-09T15:49:15.781Z,99870.66
2023-11-09T15:52:17.594Z,99866.47
2023-11-09T15:55:21.665Z,99873.13
2023-11-09T15:58:26.295Z,99859.72
2023-11-09T16:01:29.628Z,99858.50
2023-11-09T16:04:33.150Z,99864.63
2023-11-09T16:07:35.056Z,99873.50
2023-11-09T16:10:37.639Z,99876.72
2023-11-09T16:13:42.044Z,99867.41
2023-11-09T16:16:45.435Z,99870.00
2023-11-09T16:19:47.584Z,99881.31
2023-11-09T16:22:50.415Z,99880.47
2023-11-09T16:25:52.777Z,99878.88
2023-11-09T16:28:59.768Z,99872.50
2023-11-09T16:32:03.305Z,99877.25
2023-11-09T16:35:07.348Z,99870.22
2023-11-09T16:38:12.753Z,99872.66
2023-11-09T16:41:14.928Z,99882.41
2023-11-09T16:44:17.658Z,99881.16
2023-11-09T16:47:20.858Z,99885.88
2023-11-09T16:50:22.837Z,99876.91
2023-11-09T16:53:25.609Z,99892.97
2023-11-09T16:56:27.479Z,99870.47
2023-11-09T16:59:29.836Z,99868.38
2023-11-09T17:02:34.219Z,99872.97
2023-11-09T17:05:36.224Z,99876.72
2023-11-09T17:08:39.092Z,99877.47
2023-11-09T17:11:40.976Z,99877.75
2023-11-09T17:14:42.900Z,99892.41
2023-11-09T17:17:48.478Z,99882.16
2023-11-09T17:20:50.395Z,99866.63
2023-11-09T17:23:53.081Z,99853.59
2023-11-09T17:26:56.162Z,99866.16
2023-11-09T17:29:59.432Z,99865.91
2023-11-09T17:33:03.126Z,99865.81
2023-11-09T17:36:07.456Z,99865.94
2023-11-09T17:39:09.897Z,99872.31
2023-11-09T17:42:13.200Z,99873.06
2023-11-09T17:45:16.717Z,99859.84
2023-11-09T17:48:21.150Z,99873.84
2023-11-09T17:51:24.492Z,99863.16
2023-11-09T17:54:28.013Z,99855.50
2023-11-09T17:57:31.504Z,99849.09
2023-11-09T18:00:35.375Z,99852.03
2023-11-09T18:03:40.095Z,99853.47
2023-11-09T18:06:44.737Z,99856.97
2023-11-09T18:09:48.154Z,99844.03
2023-11-09T18:12:51.442Z,99848.50
2023-11-09T18:15:54.222Z,99851.44
2023-11-09T18:19:02.190Z,99848.41
2023-11-09T18:22:07.537Z,99843.78
2023-11-09T18:25:12.349Z,99850.59
2023-11-09T18:28:14.807Z,99849.53
2023-11-09T18:31:19.373Z,99847.47
2023-11-09T18:34:22.954Z,99842.03
2023-11-09T18:37:25.321Z,99840.94
2023-11-09T18:40:29.760Z,99839.81
2023-11-09T18:43:33.623Z,99830.78
2023-11-09T18:46:38.647Z,99842.63
2023-11-09T18:52:50.566Z,99829.81
2023-11-09T18:55:53.940Z,99819.09
2023-11-09T18:58:58.218Z,99820.78
2023-11-09T19:02:01.497Z,99818.69
2023-11-09T19:05:10.503Z,99820.34
2023-11-09T19:08:17.809Z,99831.25
2023-11-09T19:11:22.899Z,99820.47
2023-11-09T19:14:27.908Z,99803.97
2023-11-09T19:17:37.827Z,99799.91
2023-11-09T19:23:57.217Z,99802.81
2023-11-09T19:27:02.678Z,99805.72
2023-11-09T19:30:11.285Z,99801.44
2023-11-09T19:33:14.717Z,99796.44
2023-11-09T19:36:20.092Z,99799.72
2023-11-09T19:39:25.760Z,99802.78
2023-11-09T19:42:32.112Z,99804.44
2023-11-09T19:45:35.424Z,99798.03
2023-11-09T19:48:40.061Z,99797.03
2023-11-09T19:51:47.385Z,99801.94
2023-11-09T19:54:54.296Z,99792.50
2023-11-09T19:57:59.175Z,99797.41
2023-11-09T20:01:03.252Z,99790.66
2023-11-09T20:04:09.877Z,99798.00
2023-11-09T20:07:16.380Z,99784.25
2023-11-09T20:10:20.104Z,99787.53
2023-11-09T20:13:25.621Z,99781.72
2023-11-09T20:16:29.327Z,99793.78
2023-11-09T20:19:36.483Z,99779.38
2023-11-09T20:22:42.214Z,99782.00
2023-11-09T20:25:45.924Z,99774.31
2023-11-09T20:28:52.432Z,99781.25
2023-11-09T20:31:56.529Z,99780.59
2023-11-09T20:35:00.969Z,99769.09
2023-11-09T20:38:08.976Z,99760.00
2023-11-09T20:41:12.885Z,99756.41
2023-11-09T20:44:20.422Z,99758.09
2023-11-09T20:47:24.335Z,99739.78
2023-11-09T20:50:30.201Z,99745.06
2023-11-09T20:53:35.206Z,99750.59
2023-11-09T20:56:38.900Z,99736.84
2023-11-09T20:59:41.869Z,99740.84
2023-11-09T21:02:43.813Z,99760.13
2023-11-09T21:05:46.511Z,99749.88
2023-11-09T21:08:51.875Z,99757.59
2023-11-09T21:11:56.322Z,99758.31
2023-11-09T21:15:06.341Z,99747.50
2023-11-09T21:18:08.794Z,99745.53
2023-11-09T21:21:11.016Z,99731.81
2023-11-09T21:24:14.554Z,99736.97
2023-11-09T21:27:18.281Z,99728.97
2023-11-09T21:30:21.190Z,99727.25
2023-11-09T21:33:23.365Z,99735.50
2023-11-09T21:36:25.519Z,99726.44
2023-11-09T21:39:28.968Z,99730.22
2023-11-09T21:42:30.956Z,99728.09
2023-11-09T21:45:32.849Z,99732.50
2023-11-09T21:48:34.845Z,99724.63
2023-11-09T21:51:42.060Z,99723.09
2023-11-09T21:54:45.804Z,99713.03
2023-11-09T21:57:48.029Z,99716.06
2023-11-09T22:00:53.252Z,99717.31
2023-11-09T22:03:55.177Z,99718.03
2023-11-09T22:06:58.064Z,99709.81
2023-11-09T22:10:01.834Z,99715.84
2023-11-09T22:13:04.850Z,99716.53
2023-11-09T22:16:11.353Z,99717.75
2023-11-09T22:19:13.338Z,99714.13
2023-11-09T22:22:16.379Z,99712.91
2023-11-09T22:25:20.393Z,99722.81
2023-11-09T22:28:22.434Z,99717.81
2023-11-09T22:31:24.822Z,99719.47
2023-11-09T22:34:26.699Z,99711.31
2023-11-09T22:37:28.585Z,99709.19
2023-11-09T22:40:31.772Z,99705.69
2023-11-09T22:43:33.840Z,99700.19
2023-11-09T22:46:42.462Z,99700.94
2023-11-09T22:49:44.722Z,99695.06
2023-11-09T22:52:47.889Z,99705.22
2023-11-09T22:55:52.156Z,99707.03
2023-11-09T22:58:53.930Z,99696.47
2023-11-09T23:01:56.723Z,99690.50
2023-11-09T23:04:58.571Z,99691.94
2023-11-09T23:08:00.347Z,99684.47
2023-11-09T23:11:05.075Z,99679.19
2023-11-09T23:14:08.296Z,99684.31
2023-11-09T23:17:10.585Z,99683.22
2023-11-09T23:20:13.485Z,99678.16
2023-11-09T23:23:15.594Z,99676.84
2023-11-09T23:26:18.775Z,99682.97
2023-11-09T23:29:21.596Z,99678.75
2023-11-09T23:32:23.605Z,99673.31
2023-11-09T23:35:25.417Z,99669.47
2023-11-09T23:38:27.609Z,99669.06
2023-11-09T23:41:30.770Z,99666.03
2023-11-09T23:44:32.576Z,99674.44
2023-11-09T23:47:38.126Z,99669.28
2023-11-09T23:50:40.022Z,99666.38
2023-11-09T23:53:42.526Z,99663.63
2023-11-09T23:56:45.703Z,99653.78
2023-11-09T23:59:47.973Z,99655.50
